DLH6AA EDDM-KIAD
Flight info
| Callsign | DLH6AA |
|---|---|
| Flight time | N/A |
| Altitude | 36000 |
| Route | EDDM/26L GIVMI Y101 INBED DCT REKDI DCT LOHRE DCT BUB L608 DENUT L610 KOPUL Q60 OKSAW DCT BIBPE DCT OKTAD DCT MEDOG DCT PEMOB DCT BAKUR DCT VENER/M083F360 DCT 55N020W 5530N03000W 5530N04000W 54N050W DCT NEEKO/N0487F360 N622E TAFFY DCT KJOHN DCT ALB HYPER9 |
| Aircraft | A388/J-SADE2E3FGHIJ3J4J5M1RWXY/LB1D1 |
Departure
| Time | 2026-05-04 08:20 |
|---|---|
| Airport | Munich Airport (EDDM) |
Arrival
| Time | N/A |
|---|---|
| Airport | Washington Dulles International Airport (KIAD) |
| Time | Latitude | Longitude | Altitude | Speed | Heading |
|---|---|---|---|---|---|
| 2026-05-04 07:54 | 48.35021 | 11.79384 | 1472 ft | 0 kts | 263° |
| 2026-05-04 08:08 | 48.35026 | 11.79456 | 1460 ft | 4 kts | 264° |
| 2026-05-04 08:08 | 48.35026 | 11.79459 | 1460 ft | 4 kts | 264° |
| 2026-05-04 08:10 | 48.35105 | 11.79515 | 1460 ft | 0 kts | 173° |
| 2026-05-04 08:13 | 48.35099 | 11.79516 | 1460 ft | 3 kts | 173° |
| 2026-05-04 08:13 | 48.35066 | 11.79522 | 1463 ft | 7 kts | 173° |
| 2026-05-04 08:14 | 48.35007 | 11.79534 | 1466 ft | 10 kts | 173° |
| 2026-05-04 08:14 | 48.34956 | 11.79543 | 1468 ft | 12 kts | 174° |
| 2026-05-04 08:14 | 48.34869 | 11.79556 | 1460 ft | 12 kts | 174° |
| 2026-05-04 08:16 | 48.34840 | 11.80226 | 1462 ft | 12 kts | 90° |
| 2026-05-04 08:16 | 48.34820 | 11.80330 | 1461 ft | 10 kts | 126° |
| 2026-05-04 08:16 | 48.34759 | 11.80393 | 1463 ft | 12 kts | 167° |
| 2026-05-04 08:17 | 48.34686 | 11.80409 | 1466 ft | 10 kts | 173° |
| 2026-05-04 08:17 | 48.34664 | 11.80413 | 1468 ft | 0 kts | 173° |
| 2026-05-04 08:19 | 48.34470 | 11.80360 | 1470 ft | 4 kts | 256° |
| 2026-05-04 08:19 | 48.34462 | 11.80244 | 1467 ft | 29 kts | 264° |
| 2026-05-04 08:20 | 48.34410 | 11.79559 | 1463 ft | 103 kts | 263° |
| 2026-05-04 08:20 | 48.34303 | 11.78191 | 1469 ft | 156 kts | 263° |
| 2026-05-04 08:20 | 48.34165 | 11.76411 | 1615 ft | 178 kts | 262° |
| 2026-05-04 08:20 | 48.34036 | 11.74598 | 2159 ft | 176 kts | 266° |
| 2026-05-04 08:21 | 48.33968 | 11.72732 | 2588 ft | 181 kts | 267° |
| 2026-05-04 08:21 | 48.33860 | 11.70830 | 3032 ft | 184 kts | 265° |
| 2026-05-04 08:21 | 48.33701 | 11.68853 | 3267 ft | 198 kts | 263° |
| 2026-05-04 08:21 | 48.33513 | 11.66729 | 3411 ft | 213 kts | 263° |
| 2026-05-04 08:22 | 48.33334 | 11.64447 | 3516 ft | 229 kts | 268° |
| 2026-05-04 08:22 | 48.33674 | 11.62049 | 3900 ft | 240 kts | 301° |
| 2026-05-04 08:24 | 48.41537 | 11.46216 | 8393 ft | 285 kts | 307° |
| 2026-05-04 08:24 | 48.43036 | 11.44248 | 9077 ft | 291 kts | 330° |
| 2026-05-04 08:24 | 48.44980 | 11.43326 | 9769 ft | 297 kts | 349° |
| 2026-05-04 08:24 | 48.47046 | 11.42813 | 10334 ft | 305 kts | 348° |
| 2026-05-04 08:25 | 48.49207 | 11.42242 | 10527 ft | 325 kts | 348° |
| 2026-05-04 08:25 | 48.51493 | 11.41618 | 10702 ft | 343 kts | 348° |
| 2026-05-04 08:25 | 48.53876 | 11.40960 | 11096 ft | 352 kts | 348° |
| 2026-05-04 08:25 | 48.56292 | 11.40287 | 11680 ft | 355 kts | 348° |
| 2026-05-04 08:26 | 48.58732 | 11.39617 | 12278 ft | 358 kts | 348° |
| 2026-05-04 08:27 | 48.74353 | 11.32181 | 15860 ft | 369 kts | 323° |
| 2026-05-04 08:28 | 48.76494 | 11.29996 | 16331 ft | 373 kts | 323° |
| 2026-05-04 08:28 | 48.78631 | 11.27841 | 16838 ft | 375 kts | 323° |
| 2026-05-04 08:28 | 48.80845 | 11.25609 | 17353 ft | 378 kts | 323° |
| 2026-05-04 08:28 | 48.83012 | 11.23436 | 17857 ft | 381 kts | 325° |
| 2026-05-04 08:29 | 48.85376 | 11.21559 | 18339 ft | 386 kts | 334° |
| 2026-05-04 08:29 | 48.87956 | 11.20164 | 18785 ft | 390 kts | 340° |
| 2026-05-04 08:29 | 48.90509 | 11.18905 | 19217 ft | 391 kts | 339° |
| 2026-05-04 08:31 | 49.08870 | 11.09537 | 22145 ft | 404 kts | 339° |
| 2026-05-04 08:33 | 49.27838 | 10.99814 | 24728 ft | 417 kts | 338° |
| 2026-05-04 08:33 | 49.30597 | 10.98389 | 25050 ft | 419 kts | 338° |
| 2026-05-04 08:35 | 49.46306 | 10.79850 | 27612 ft | 420 kts | 306° |
| 2026-05-04 08:35 | 49.48159 | 10.76356 | 28013 ft | 423 kts | 305° |
| 2026-05-04 08:35 | 49.50016 | 10.72839 | 28394 ft | 425 kts | 305° |
| 2026-05-04 08:35 | 49.51883 | 10.69291 | 28781 ft | 428 kts | 305° |
| 2026-05-04 08:37 | 49.63268 | 10.47525 | 31054 ft | 441 kts | 305° |
| 2026-05-04 08:37 | 49.65190 | 10.43824 | 31396 ft | 443 kts | 303° |
| 2026-05-04 08:37 | 49.66960 | 10.39940 | 31758 ft | 443 kts | 300° |
| 2026-05-04 08:38 | 49.68697 | 10.35975 | 32015 ft | 447 kts | 300° |
| 2026-05-04 08:38 | 49.70454 | 10.32005 | 32367 ft | 449 kts | 300° |
| 2026-05-04 08:38 | 49.72218 | 10.28022 | 32695 ft | 451 kts | 300° |
| 2026-05-04 08:40 | 49.84706 | 9.99560 | 34947 ft | 465 kts | 300° |
| 2026-05-04 08:40 | 49.86522 | 9.95393 | 35242 ft | 466 kts | 300° |
| 2026-05-04 08:40 | 49.88334 | 9.91230 | 35645 ft | 465 kts | 300° |
| 2026-05-04 08:41 | 49.90140 | 9.87075 | 36000 ft | 466 kts | 299° |
| 2026-05-04 08:41 | 49.93774 | 9.78689 | 36033 ft | 466 kts | 299° |
| 2026-05-04 08:42 | 49.97391 | 9.70320 | 36034 ft | 468 kts | 299° |
| 2026-05-04 08:42 | 50.01011 | 9.61912 | 36035 ft | 468 kts | 299° |
| 2026-05-04 08:43 | 50.04587 | 9.53460 | 36033 ft | 466 kts | 296° |
| 2026-05-04 08:43 | 50.07378 | 9.44456 | 36011 ft | 458 kts | 286° |
| 2026-05-04 08:44 | 50.09279 | 9.35048 | 36008 ft | 454 kts | 282° |
| 2026-05-04 08:46 | 50.16475 | 8.97387 | 35979 ft | 452 kts | 282° |
| 2026-05-04 08:46 | 50.18243 | 8.87969 | 35984 ft | 453 kts | 282° |
| 2026-05-04 08:47 | 50.20008 | 8.78515 | 35989 ft | 454 kts | 282° |
| 2026-05-04 08:47 | 50.21771 | 8.69021 | 36006 ft | 456 kts | 282° |
| 2026-05-04 08:48 | 50.23532 | 8.59491 | 36017 ft | 457 kts | 282° |
| 2026-05-04 08:48 | 50.25289 | 8.49928 | 36017 ft | 459 kts | 282° |
| 2026-05-04 08:49 | 50.27044 | 8.40334 | 36036 ft | 459 kts | 282° |
| 2026-05-04 08:50 | 50.33123 | 8.06704 | 36016 ft | 460 kts | 281° |
| 2026-05-04 08:51 | 50.34842 | 7.97074 | 36016 ft | 459 kts | 281° |
| 2026-05-04 08:51 | 50.36552 | 7.87448 | 36008 ft | 459 kts | 281° |
| 2026-05-04 08:52 | 50.38255 | 7.77810 | 36003 ft | 459 kts | 281° |
| 2026-05-04 08:52 | 50.39948 | 7.68174 | 36005 ft | 459 kts | 281° |
| 2026-05-04 08:54 | 50.46632 | 7.29612 | 35978 ft | 458 kts | 280° |
| 2026-05-04 08:55 | 50.48284 | 7.19960 | 35979 ft | 458 kts | 280° |
| 2026-05-04 08:55 | 50.49927 | 7.10294 | 35981 ft | 458 kts | 280° |
| 2026-05-04 09:01 | 50.66587 | 6.09107 | 35994 ft | 463 kts | 280° |
| 2026-05-04 09:01 | 50.68155 | 5.99261 | 36010 ft | 463 kts | 279° |
| 2026-05-04 09:02 | 50.69712 | 5.89429 | 36002 ft | 462 kts | 279° |
| 2026-05-04 09:02 | 50.71259 | 5.79602 | 35997 ft | 461 kts | 279° |
| 2026-05-04 09:03 | 50.72794 | 5.69783 | 35995 ft | 460 kts | 279° |
| 2026-05-04 09:03 | 50.74319 | 5.59979 | 36033 ft | 460 kts | 279° |
| 2026-05-04 09:04 | 50.75835 | 5.50164 | 36008 ft | 460 kts | 279° |
| 2026-05-04 09:04 | 50.77344 | 5.40343 | 36006 ft | 460 kts | 279° |
| 2026-05-04 09:05 | 50.78844 | 5.30516 | 36000 ft | 460 kts | 279° |
| 2026-05-04 09:05 | 50.80335 | 5.20686 | 35975 ft | 460 kts | 279° |
| 2026-05-04 09:06 | 50.81821 | 5.10834 | 35975 ft | 461 kts | 278° |
| 2026-05-04 09:08 | 50.87699 | 4.71240 | 35993 ft | 464 kts | 278° |
| 2026-05-04 09:08 | 50.89161 | 4.61277 | 36020 ft | 465 kts | 278° |
| 2026-05-04 09:09 | 50.91300 | 4.51541 | 36020 ft | 474 kts | 291° |
| 2026-05-04 09:09 | 50.94627 | 4.42440 | 36019 ft | 478 kts | 296° |
| 2026-05-04 09:10 | 50.98076 | 4.33431 | 36019 ft | 478 kts | 296° |
| 2026-05-04 09:10 | 51.01528 | 4.24375 | 36231 ft | 481 kts | 296° |
| 2026-05-04 09:10 | 51.03258 | 4.19831 | 36534 ft | 482 kts | 296° |
| 2026-05-04 09:11 | 51.04993 | 4.15267 | 36825 ft | 483 kts | 296° |
| 2026-05-04 09:11 | 51.06730 | 4.10691 | 37115 ft | 484 kts | 296° |
| 2026-05-04 09:11 | 51.08470 | 4.06100 | 37414 ft | 485 kts | 297° |
| 2026-05-04 09:11 | 51.10210 | 4.01499 | 37661 ft | 486 kts | 297° |
| 2026-05-04 09:12 | 51.11952 | 3.96886 | 37935 ft | 488 kts | 297° |
| 2026-05-04 09:14 | 51.24412 | 3.58950 | 37984 ft | 479 kts | 282° |
| 2026-05-04 09:14 | 51.25856 | 3.48617 | 37987 ft | 477 kts | 278° |
| 2026-05-04 09:15 | 51.27251 | 3.38263 | 37989 ft | 477 kts | 278° |
| 2026-05-04 09:15 | 51.28602 | 3.27889 | 37991 ft | 477 kts | 278° |
| 2026-05-04 09:17 | 51.34492 | 2.81199 | 37997 ft | 476 kts | 278° |
| 2026-05-04 09:18 | 51.35767 | 2.70890 | 37992 ft | 475 kts | 278° |
| 2026-05-04 09:18 | 51.37047 | 2.60512 | 37994 ft | 475 kts | 278° |
| 2026-05-04 09:19 | 51.38317 | 2.50133 | 37997 ft | 475 kts | 278° |
| 2026-05-04 09:19 | 51.39578 | 2.39742 | 37996 ft | 475 kts | 278° |
| 2026-05-04 09:20 | 51.40830 | 2.29341 | 37992 ft | 476 kts | 278° |
| 2026-05-04 09:20 | 51.42090 | 2.18911 | 37993 ft | 477 kts | 278° |
| 2026-05-04 09:21 | 51.43367 | 2.08468 | 38001 ft | 478 kts | 278° |
| 2026-05-04 09:21 | 51.44633 | 1.98012 | 38006 ft | 478 kts | 278° |
| 2026-05-04 09:22 | 51.45870 | 1.87528 | 37998 ft | 480 kts | 278° |
| 2026-05-04 09:22 | 51.47091 | 1.77000 | 38000 ft | 480 kts | 278° |
| 2026-05-04 09:23 | 51.48301 | 1.66466 | 38009 ft | 481 kts | 278° |
| 2026-05-04 09:23 | 51.49506 | 1.55900 | 38014 ft | 481 kts | 278° |
| 2026-05-04 09:25 | 51.54213 | 1.13592 | 38024 ft | 480 kts | 276° |
| 2026-05-04 09:26 | 51.54904 | 1.02948 | 38017 ft | 479 kts | 274° |
| 2026-05-04 09:26 | 51.55588 | 0.92310 | 38012 ft | 479 kts | 274° |
| 2026-05-04 09:27 | 51.56261 | 0.81653 | 38022 ft | 479 kts | 274° |
| 2026-05-04 09:27 | 51.56921 | 0.70986 | 38015 ft | 480 kts | 274° |
| 2026-05-04 09:28 | 51.57571 | 0.60305 | 38014 ft | 480 kts | 274° |
| 2026-05-04 09:28 | 51.58212 | 0.49611 | 38013 ft | 481 kts | 274° |
| 2026-05-04 09:29 | 51.58845 | 0.38881 | 37997 ft | 483 kts | 274° |
| 2026-05-04 09:29 | 51.59471 | 0.28119 | 38024 ft | 484 kts | 274° |
| 2026-05-04 09:30 | 51.60088 | 0.17316 | 38024 ft | 486 kts | 274° |
| 2026-05-04 09:30 | 51.60696 | 0.06493 | 38036 ft | 487 kts | 274° |
| 2026-05-04 09:31 | 51.61297 | -0.04366 | 38030 ft | 488 kts | 274° |
| 2026-05-04 09:31 | 51.61895 | -0.15237 | 38041 ft | 488 kts | 274° |
| 2026-05-04 09:32 | 51.62569 | -0.26105 | 38059 ft | 488 kts | 274° |
| 2026-05-04 09:34 | 51.65168 | -0.69610 | 38022 ft | 488 kts | 274° |
| 2026-05-04 09:34 | 51.65787 | -0.80477 | 38017 ft | 488 kts | 274° |
| 2026-05-04 09:35 | 51.66396 | -0.91351 | 38021 ft | 487 kts | 274° |
| 2026-05-04 09:35 | 51.66995 | -1.02224 | 38007 ft | 488 kts | 274° |
| 2026-05-04 09:37 | 51.69294 | -1.45817 | 38025 ft | 489 kts | 273° |
| 2026-05-04 09:38 | 51.69846 | -1.56761 | 38021 ft | 490 kts | 273° |
| 2026-05-04 09:38 | 51.70388 | -1.67705 | 38038 ft | 490 kts | 274° |
| 2026-05-04 09:39 | 51.71086 | -1.78569 | 38038 ft | 491 kts | 276° |
| 2026-05-04 09:39 | 51.72239 | -1.89493 | 38042 ft | 492 kts | 283° |
| 2026-05-04 09:40 | 51.73870 | -2.00145 | 38041 ft | 493 kts | 283° |
| 2026-05-04 09:40 | 51.75456 | -2.10901 | 38046 ft | 493 kts | 282° |
| 2026-05-04 09:42 | 51.81716 | -2.54053 | 38034 ft | 494 kts | 282° |
| 2026-05-04 09:43 | 51.82966 | -2.63056 | 38035 ft | 494 kts | 282° |
| 2026-05-04 09:43 | 51.84423 | -2.73914 | 38031 ft | 494 kts | 282° |
| 2026-05-04 09:44 | 51.85877 | -2.84778 | 38066 ft | 494 kts | 281° |
| 2026-05-04 09:46 | 51.91633 | -3.28435 | 38053 ft | 496 kts | 281° |
| 2026-05-04 09:46 | 51.93049 | -3.39382 | 38042 ft | 497 kts | 281° |
| 2026-05-04 09:47 | 51.94456 | -3.50346 | 38024 ft | 498 kts | 282° |
| 2026-05-04 09:49 | 51.99990 | -3.94348 | 38033 ft | 498 kts | 282° |
| 2026-05-04 09:51 | 52.04708 | -4.33013 | 38033 ft | 499 kts | 281° |
| 2026-05-04 09:51 | 52.06024 | -4.44013 | 38048 ft | 499 kts | 281° |
| 2026-05-04 09:52 | 52.07341 | -4.55104 | 38037 ft | 500 kts | 282° |
| 2026-05-04 09:52 | 52.08647 | -4.66198 | 38040 ft | 499 kts | 281° |
| 2026-05-04 09:53 | 52.09942 | -4.77292 | 38042 ft | 499 kts | 281° |
| 2026-05-04 09:53 | 52.11225 | -4.88385 | 38031 ft | 499 kts | 281° |
| 2026-05-04 09:54 | 52.12500 | -4.99497 | 38046 ft | 499 kts | 281° |
| 2026-05-04 09:54 | 52.13765 | -5.10619 | 38034 ft | 500 kts | 281° |
| 2026-05-04 09:55 | 52.15409 | -5.21591 | 38045 ft | 499 kts | 289° |
| 2026-05-04 09:55 | 52.17480 | -5.32379 | 38067 ft | 499 kts | 288° |
| 2026-05-04 09:56 | 52.19523 | -5.43209 | 38027 ft | 501 kts | 289° |
| 2026-05-04 09:56 | 52.21561 | -5.54071 | 38064 ft | 501 kts | 289° |
| 2026-05-04 09:57 | 52.23601 | -5.64955 | 38059 ft | 502 kts | 291° |
| 2026-05-04 09:57 | 52.26343 | -5.75373 | 38088 ft | 499 kts | 297° |
| 2026-05-04 09:58 | 52.29335 | -5.85596 | 38071 ft | 499 kts | 297° |
| 2026-05-04 09:58 | 52.32322 | -5.95825 | 38062 ft | 499 kts | 297° |
| 2026-05-04 10:00 | 52.44246 | -6.36845 | 38073 ft | 499 kts | 297° |
| 2026-05-04 10:04 | 52.64656 | -7.08909 | 38076 ft | 496 kts | 296° |
| 2026-05-04 10:04 | 52.67529 | -7.19233 | 38078 ft | 496 kts | 296° |
| 2026-05-04 10:05 | 52.70395 | -7.29576 | 38080 ft | 496 kts | 296° |
| 2026-05-04 10:05 | 52.73251 | -7.39931 | 38083 ft | 496 kts | 296° |
| 2026-05-04 10:06 | 52.76097 | -7.50300 | 38084 ft | 496 kts | 296° |
| 2026-05-04 10:06 | 52.78933 | -7.60675 | 38097 ft | 495 kts | 296° |
| 2026-05-04 10:08 | 52.88776 | -7.97050 | 38079 ft | 495 kts | 296° |
| 2026-05-04 10:08 | 52.91562 | -8.07454 | 38080 ft | 494 kts | 296° |
| 2026-05-04 10:09 | 52.94339 | -8.17871 | 38099 ft | 494 kts | 296° |
| 2026-05-04 10:09 | 52.97105 | -8.28292 | 38107 ft | 493 kts | 296° |
| 2026-05-04 10:10 | 52.99854 | -8.38696 | 38118 ft | 492 kts | 296° |
| 2026-05-04 10:10 | 53.02589 | -8.49095 | 38111 ft | 491 kts | 296° |
| 2026-05-04 10:11 | 53.05309 | -8.59486 | 38109 ft | 490 kts | 296° |
| 2026-05-04 10:11 | 53.08016 | -8.69877 | 38104 ft | 489 kts | 296° |
| 2026-05-04 10:12 | 53.10688 | -8.80178 | 38107 ft | 488 kts | 296° |
| 2026-05-04 10:12 | 53.13365 | -8.90545 | 38109 ft | 487 kts | 296° |
| 2026-05-04 10:13 | 53.16031 | -9.00916 | 38103 ft | 487 kts | 296° |
| 2026-05-04 10:13 | 53.18686 | -9.11294 | 38108 ft | 487 kts | 296° |
| 2026-05-04 10:14 | 53.21331 | -9.21684 | 38104 ft | 486 kts | 296° |
| 2026-05-04 10:16 | 53.31816 | -9.63341 | 38128 ft | 487 kts | 295° |
| 2026-05-04 10:16 | 53.34417 | -9.73800 | 38129 ft | 487 kts | 295° |
| 2026-05-04 10:17 | 53.37005 | -9.84255 | 38138 ft | 486 kts | 295° |
| 2026-05-04 10:19 | 53.47279 | -10.26252 | 38152 ft | 486 kts | 295° |
| 2026-05-04 10:19 | 53.49821 | -10.36770 | 38156 ft | 486 kts | 295° |
| 2026-05-04 10:20 | 53.52336 | -10.47226 | 38153 ft | 486 kts | 295° |
| 2026-05-04 10:20 | 53.54855 | -10.57750 | 38159 ft | 485 kts | 295° |
| 2026-05-04 10:21 | 53.57363 | -10.68278 | 38156 ft | 484 kts | 295° |
| 2026-05-04 10:21 | 53.59857 | -10.78795 | 38158 ft | 484 kts | 295° |
| 2026-05-04 10:22 | 53.63577 | -10.94586 | 38150 ft | 483 kts | 295° |
| 2026-05-04 10:23 | 53.66044 | -11.05120 | 38157 ft | 483 kts | 294° |
| 2026-05-04 10:25 | 53.75814 | -11.47362 | 38159 ft | 482 kts | 294° |
| 2026-05-04 10:25 | 53.78229 | -11.57933 | 38182 ft | 482 kts | 294° |
| 2026-05-04 10:26 | 53.80630 | -11.68495 | 38176 ft | 481 kts | 294° |
| 2026-05-04 10:26 | 53.83018 | -11.79055 | 38155 ft | 480 kts | 294° |
| 2026-05-04 10:27 | 53.85395 | -11.89620 | 38151 ft | 480 kts | 294° |
| 2026-05-04 10:27 | 53.87759 | -12.00179 | 38164 ft | 479 kts | 294° |
| 2026-05-04 10:28 | 53.89716 | -12.08961 | 38185 ft | 478 kts | 293° |
| 2026-05-04 10:28 | 53.92057 | -12.19514 | 38181 ft | 478 kts | 293° |
| 2026-05-04 10:29 | 53.94386 | -12.30066 | 38174 ft | 477 kts | 293° |
| 2026-05-04 10:29 | 53.96701 | -12.40611 | 38169 ft | 476 kts | 292° |
| 2026-05-04 10:30 | 53.99005 | -12.51156 | 38167 ft | 476 kts | 292° |
| 2026-05-04 10:30 | 54.01300 | -12.61716 | 38164 ft | 476 kts | 292° |
| 2026-05-04 10:31 | 54.03583 | -12.72272 | 38165 ft | 476 kts | 292° |
| 2026-05-04 10:32 | 54.11500 | -13.09315 | 38173 ft | 475 kts | 291° |
| 2026-05-04 10:33 | 54.13739 | -13.19917 | 38174 ft | 475 kts | 291° |
| 2026-05-04 10:33 | 54.15968 | -13.30526 | 38177 ft | 475 kts | 291° |
| 2026-05-04 10:34 | 54.18187 | -13.41142 | 38168 ft | 475 kts | 291° |
| 2026-05-04 10:34 | 54.20395 | -13.51761 | 38174 ft | 475 kts | 291° |
| 2026-05-04 10:35 | 54.22595 | -13.62400 | 38175 ft | 475 kts | 291° |
| 2026-05-04 10:35 | 54.24786 | -13.73049 | 38199 ft | 474 kts | 291° |
| 2026-05-04 10:36 | 54.26964 | -13.83694 | 38186 ft | 474 kts | 291° |
| 2026-05-04 10:36 | 54.29131 | -13.94343 | 38181 ft | 473 kts | 291° |
| 2026-05-04 10:37 | 54.31284 | -14.04982 | 38177 ft | 472 kts | 290° |
| 2026-05-04 10:37 | 54.33422 | -14.15600 | 38176 ft | 472 kts | 290° |
| 2026-05-04 10:39 | 54.40817 | -14.52776 | 38181 ft | 471 kts | 289° |
| 2026-05-04 10:40 | 54.42907 | -14.63405 | 38213 ft | 469 kts | 290° |
| 2026-05-04 10:40 | 54.44987 | -14.74000 | 38175 ft | 468 kts | 289° |
| 2026-05-04 10:41 | 54.47053 | -14.84581 | 38158 ft | 467 kts | 289° |
| 2026-05-04 10:41 | 54.49087 | -14.95200 | 38177 ft | 467 kts | 287° |
| 2026-05-04 10:42 | 54.50739 | -15.06023 | 38183 ft | 468 kts | 283° |
| 2026-05-04 10:42 | 54.52017 | -15.16996 | 38152 ft | 469 kts | 282° |
| 2026-05-04 10:43 | 54.53363 | -15.27954 | 38155 ft | 469 kts | 282° |
| 2026-05-04 10:45 | 54.58545 | -15.71883 | 38172 ft | 468 kts | 281° |
| 2026-05-04 10:45 | 54.59809 | -15.82866 | 38200 ft | 466 kts | 281° |
| 2026-05-04 10:46 | 54.61062 | -15.93848 | 38175 ft | 467 kts | 281° |
| 2026-05-04 10:46 | 54.62305 | -16.04832 | 38199 ft | 466 kts | 281° |
| 2026-05-04 10:47 | 54.63538 | -16.15825 | 38192 ft | 466 kts | 281° |
| 2026-05-04 10:47 | 54.64754 | -16.26758 | 38177 ft | 467 kts | 281° |